createdAt,value
2023-04-16T00:01:25.432Z,80.35
2023-04-16T00:03:52.162Z,80.46
2023-04-16T00:06:18.753Z,80.65
2023-04-16T00:08:45.193Z,80.46
2023-04-16T00:11:11.882Z,80.68
2023-04-16T00:13:38.313Z,80.69
2023-04-16T00:16:04.986Z,80.36
2023-04-16T00:18:32.082Z,80.08
2023-04-16T00:20:59.522Z,80.21
2023-04-16T00:23:25.996Z,80.28
2023-04-16T00:25:53.793Z,80.70
2023-04-16T00:28:20.341Z,80.61
2023-04-16T00:30:46.778Z,80.86
2023-04-16T00:33:13.183Z,80.58
2023-04-16T00:35:39.821Z,80.64
2023-04-16T00:38:06.216Z,80.83
2023-04-16T00:40:32.623Z,80.14
2023-04-16T00:42:59.045Z,80.17
2023-04-16T00:45:25.487Z,80.42
2023-04-16T00:47:51.958Z,80.40
2023-04-16T00:50:18.682Z,80.01
2023-04-16T00:52:47.511Z,80.37
2023-04-16T00:55:15.169Z,80.07
2023-04-16T00:57:41.627Z,80.01
2023-04-16T01:00:08.694Z,80.29
2023-04-16T01:02:35.605Z,80.08
2023-04-16T01:05:03.152Z,80.53
2023-04-16T01:07:29.675Z,80.26
2023-04-16T01:09:56.445Z,80.20
2023-04-16T01:12:23.221Z,80.01
2023-04-16T01:14:49.988Z,79.95
2023-04-16T01:17:16.383Z,79.97
2023-04-16T01:19:42.982Z,80.03
2023-04-16T01:22:09.389Z,80.01
2023-04-16T01:24:36.460Z,79.80
2023-04-16T01:27:02.936Z,79.75
2023-04-16T01:29:29.443Z,79.64
2023-04-16T01:31:55.878Z,79.84
2023-04-16T01:34:22.274Z,79.83
2023-04-16T01:36:48.701Z,79.75
2023-04-16T01:39:16.442Z,79.60
2023-04-16T01:41:43.575Z,79.55
2023-04-16T01:44:10.002Z,79.49
2023-04-16T01:46:38.032Z,79.70
2023-04-16T01:49:05.569Z,79.51
2023-04-16T01:51:32.312Z,79.70
2023-04-16T01:53:58.945Z,79.41
2023-04-16T01:56:25.767Z,79.54
2023-04-16T01:58:52.983Z,79.43
2023-04-16T02:01:19.852Z,79.63
2023-04-16T02:03:47.135Z,79.33
2023-04-16T02:06:13.803Z,79.45
2023-04-16T02:08:40.929Z,80.06
2023-04-16T02:11:07.624Z,79.51
2023-04-16T02:13:34.031Z,79.52
2023-04-16T02:16:00.606Z,79.79
2023-04-16T02:18:27.230Z,79.89
2023-04-16T02:20:53.695Z,79.82
2023-04-16T02:23:20.274Z,80.18
2023-04-16T02:25:47.661Z,79.68
2023-04-16T02:28:16.728Z,79.59
2023-04-16T02:30:43.894Z,79.56
2023-04-16T02:33:11.951Z,80.07
2023-04-16T02:35:39.733Z,79.90
2023-04-16T02:38:06.618Z,79.37
2023-04-16T02:40:33.321Z,79.52
2023-04-16T02:42:59.810Z,79.62
2023-04-16T02:45:26.198Z,79.81
2023-04-16T02:47:52.820Z,80.22
2023-04-16T02:50:19.278Z,80.17
2023-04-16T02:52:45.824Z,80.05
2023-04-16T02:55:12.213Z,80.30
2023-04-16T02:57:38.791Z,80.07
2023-04-16T03:00:05.842Z,80.23
2023-04-16T03:02:32.381Z,80.48
2023-04-16T03:04:58.818Z,80.72
2023-04-16T03:07:25.887Z,80.82
2023-04-16T03:09:52.538Z,81.01
2023-04-16T03:12:18.941Z,80.75
2023-04-16T03:14:45.362Z,80.27
2023-04-16T03:17:12.100Z,81.04
2023-04-16T03:19:38.512Z,80.34
2023-04-16T03:22:05.004Z,80.48
2023-04-16T03:24:32.254Z,80.53
2023-04-16T03:26:58.952Z,80.80
2023-04-16T03:29:26.753Z,80.75
2023-04-16T03:31:53.445Z,80.73
2023-04-16T03:34:19.965Z,81.02
2023-04-16T03:36:46.412Z,81.16
2023-04-16T03:39:12.938Z,80.98
2023-04-16T03:41:39.371Z,81.05
2023-04-16T03:44:05.843Z,81.02
2023-04-16T03:46:32.343Z,81.45
2023-04-16T03:48:58.783Z,81.07
2023-04-16T03:51:26.294Z,81.10
2023-04-16T03:53:52.839Z,81.45
2023-04-16T03:56:19.258Z,81.06
2023-04-16T03:58:45.645Z,81.17
2023-04-16T04:01:12.075Z,81.44
2023-04-16T04:03:38.594Z,81.53
2023-04-16T04:06:09.015Z,81.31
2023-04-16T04:08:35.658Z,81.07
2023-04-16T04:11:02.075Z,81.49
2023-04-16T04:13:28.693Z,81.22
2023-04-16T04:15:55.286Z,81.30
2023-04-16T04:18:21.729Z,81.58
2023-04-16T04:20:48.205Z,81.49
2023-04-16T04:23:14.641Z,81.66
2023-04-16T04:25:41.085Z,82.07
2023-04-16T04:28:07.509Z,82.14
2023-04-16T04:30:35.730Z,82.37
2023-04-16T04:33:02.297Z,82.21
2023-04-16T04:35:28.875Z,81.98
2023-04-16T04:37:55.673Z,82.14
2023-04-16T04:40:22.214Z,82.34
2023-04-16T04:42:48.628Z,82.61
2023-04-16T04:45:15.314Z,82.64
2023-04-16T04:47:41.820Z,82.30
2023-04-16T04:50:08.649Z,82.49
2023-04-16T04:52:35.046Z,82.31
2023-04-16T04:55:01.669Z,82.41
2023-04-16T04:57:28.104Z,82.53
2023-04-16T04:59:54.520Z,82.10
2023-04-16T05:02:21.097Z,82.25
2023-04-16T05:04:47.659Z,82.56
2023-04-16T05:07:14.145Z,82.68
2023-04-16T05:09:40.611Z,81.98
2023-04-16T05:12:07.136Z,81.91
2023-04-16T05:14:33.654Z,82.27
2023-04-16T05:17:00.143Z,82.04
2023-04-16T05:19:26.654Z,82.18
2023-04-16T05:21:53.052Z,82.24
2023-04-16T05:24:20.014Z,81.91
2023-04-16T05:26:46.454Z,82.04
2023-04-16T05:29:12.855Z,82.14
2023-04-16T05:31:39.448Z,81.95
2023-04-16T05:34:05.842Z,81.77
2023-04-16T05:36:32.315Z,81.83
2023-04-16T05:38:58.697Z,81.85
2023-04-16T05:41:25.517Z,82.34
2023-04-16T05:43:51.950Z,82.24
2023-04-16T05:46:18.402Z,82.21
2023-04-16T05:48:44.870Z,81.77
2023-04-16T05:51:11.307Z,81.82
2023-04-16T05:53:37.756Z,81.96
2023-04-16T05:56:04.385Z,81.82
2023-04-16T05:58:30.761Z,80.01
2023-04-16T06:00:57.319Z,78.59
2023-04-16T06:03:23.733Z,77.88
2023-04-16T06:05:50.330Z,77.61
2023-04-16T06:08:16.853Z,76.54
2023-04-16T06:10:43.300Z,75.95
2023-04-16T06:13:09.719Z,75.13
2023-04-16T06:15:36.119Z,74.87
2023-04-16T06:18:02.564Z,74.48
2023-04-16T06:20:29.087Z,74.04
2023-04-16T06:25:22.555Z,75.87
2023-04-16T06:27:48.993Z,76.55
2023-04-16T06:30:16.077Z,77.16
2023-04-16T06:32:43.712Z,78.11
2023-04-16T06:35:10.199Z,78.58
2023-04-16T06:37:36.587Z,78.91
2023-04-16T06:40:03.214Z,79.16
2023-04-16T06:42:29.754Z,79.51
2023-04-16T06:44:56.244Z,79.57
2023-04-16T06:47:22.703Z,80.09
2023-04-16T06:49:49.143Z,80.42
2023-04-16T06:52:15.626Z,80.68
2023-04-16T06:54:42.113Z,80.15
2023-04-16T06:57:08.588Z,80.25
2023-04-16T06:59:34.986Z,79.91
2023-04-16T07:02:01.989Z,79.95
2023-04-16T07:04:28.797Z,80.22
2023-04-16T07:06:55.225Z,80.30
2023-04-16T07:09:21.644Z,79.98
2023-04-16T07:11:48.384Z,80.03
2023-04-16T07:14:14.839Z,79.72
2023-04-16T07:16:41.261Z,80.33
2023-04-16T07:19:07.983Z,79.89
2023-04-16T07:21:34.705Z,79.89
2023-04-16T07:24:01.394Z,80.00
2023-04-16T07:26:27.774Z,79.85
2023-04-16T07:28:54.182Z,80.11
2023-04-16T07:31:20.747Z,80.33
2023-04-16T07:33:47.258Z,79.82
2023-04-16T07:36:14.055Z,80.20
2023-04-16T07:38:40.614Z,80.24
2023-04-16T07:41:07.076Z,79.70
2023-04-16T07:43:33.491Z,79.75
2023-04-16T07:45:59.941Z,79.94
2023-04-16T07:48:26.477Z,79.70
2023-04-16T07:50:52.911Z,79.73
2023-04-16T07:53:19.329Z,79.48
2023-04-16T07:55:46.098Z,79.45
2023-04-16T07:58:12.531Z,79.76
2023-04-16T08:00:39.597Z,79.68
2023-04-16T08:03:06.365Z,79.40
2023-04-16T08:05:32.914Z,79.61
2023-04-16T08:07:59.306Z,79.20
2023-04-16T08:10:25.993Z,79.56
2023-04-16T08:12:54.929Z,79.11
2023-04-16T08:15:21.443Z,79.15
2023-04-16T08:17:47.983Z,78.97
2023-04-16T08:20:17.594Z,79.03
2023-04-16T08:22:46.417Z,79.46
2023-04-16T08:25:12.863Z,79.43
2023-04-16T08:27:39.262Z,79.32
2023-04-16T08:30:06.329Z,79.35
2023-04-16T08:32:32.810Z,79.20
2023-04-16T08:34:59.858Z,79.48
2023-04-16T08:37:26.672Z,78.94
2023-04-16T08:39:53.129Z,78.88
2023-04-16T08:42:30.422Z,78.88
2023-04-16T08:45:04.633Z,78.38
2023-04-16T08:47:34.513Z,78.79
2023-04-16T08:50:03.308Z,78.58
2023-04-16T08:52:31.327Z,78.57
2023-04-16T08:55:00.883Z,78.82
2023-04-16T08:57:36.441Z,78.34
2023-04-16T09:00:03.998Z,78.36
2023-04-16T09:02:31.493Z,78.40
2023-04-16T09:05:00.252Z,78.59
2023-04-16T09:07:29.093Z,78.59
2023-04-16T09:09:57.862Z,78.83
2023-04-16T09:12:24.569Z,78.72
2023-04-16T09:14:51.575Z,78.62
2023-04-16T09:17:21.108Z,78.45
2023-04-16T09:19:47.716Z,78.17
2023-04-16T09:22:14.318Z,78.30
2023-04-16T09:24:41.889Z,78.14
2023-04-16T09:27:08.731Z,78.33
2023-04-16T09:29:37.096Z,77.93
2023-04-16T09:32:05.362Z,77.93
2023-04-16T09:34:36.328Z,77.68
2023-04-16T09:37:19.101Z,77.65
2023-04-16T09:39:54.225Z,77.63
2023-04-16T09:42:28.035Z,77.29
2023-04-16T09:44:57.870Z,77.43
2023-04-16T09:47:38.286Z,77.85
2023-04-16T09:50:05.430Z,77.81
2023-04-16T09:52:31.831Z,77.88
2023-04-16T09:54:59.996Z,78.02
2023-04-16T09:57:27.179Z,77.77
2023-04-16T10:00:09.250Z,77.52
2023-04-16T10:02:39.281Z,77.87
2023-04-16T10:05:06.414Z,77.67
2023-04-16T10:07:37.278Z,77.61
2023-04-16T10:10:04.535Z,77.83
2023-04-16T10:12:32.845Z,77.47
2023-04-16T10:14:59.481Z,77.56
2023-04-16T10:17:26.585Z,77.61
2023-04-16T10:19:54.634Z,77.48
2023-04-16T10:22:21.379Z,77.49
2023-04-16T10:24:49.881Z,77.44
2023-04-16T10:27:17.224Z,77.47
2023-04-16T10:29:44.597Z,76.97
2023-04-16T10:32:11.836Z,76.67
2023-04-16T10:34:39.080Z,77.04
2023-04-16T10:37:05.541Z,77.00
2023-04-16T10:39:37.411Z,76.16
2023-04-16T10:42:13.552Z,76.19
2023-04-16T10:44:43.478Z,75.92
2023-04-16T10:47:13.207Z,76.52
2023-04-16T10:49:40.528Z,76.40
2023-04-16T10:52:12.101Z,76.23
2023-04-16T10:54:39.550Z,76.27
2023-04-16T10:57:09.488Z,76.36
2023-04-16T10:59:38.450Z,76.29
2023-04-16T11:02:16.629Z,76.49
2023-04-16T11:04:45.776Z,76.34
2023-04-16T11:07:15.260Z,76.50
2023-04-16T11:09:47.621Z,76.47
2023-04-16T11:12:16.284Z,76.35
2023-04-16T11:14:43.367Z,76.54
2023-04-16T11:17:10.206Z,76.17
2023-04-16T11:19:38.103Z,76.21
2023-04-16T11:22:05.401Z,76.50
2023-04-16T11:24:32.736Z,76.32
2023-04-16T11:26:59.260Z,75.67
2023-04-16T11:29:25.906Z,75.55
2023-04-16T11:31:53.712Z,75.96
2023-04-16T11:34:21.046Z,75.52
2023-04-16T11:36:49.452Z,75.63
2023-04-16T11:39:16.722Z,75.55
2023-04-16T11:41:48.231Z,75.75
2023-04-16T11:44:25.186Z,75.52
2023-04-16T11:46:52.917Z,75.18
2023-04-16T11:49:30.139Z,75.48
2023-04-16T11:51:57.414Z,75.49
2023-04-16T11:54:25.055Z,75.63
2023-04-16T11:56:53.580Z,75.32
2023-04-16T11:59:22.923Z,75.24
2023-04-16T12:01:55.608Z,75.13
2023-04-16T12:04:25.141Z,75.20
2023-04-16T12:07:07.003Z,74.62
2023-04-16T12:09:37.158Z,74.70
2023-04-16T12:12:06.570Z,74.86
2023-04-16T12:14:33.132Z,75.08
2023-04-16T12:17:23.510Z,74.74
2023-04-16T12:19:56.855Z,74.87
2023-04-16T12:22:45.282Z,74.24
2023-04-16T12:25:14.074Z,74.22
2023-04-16T12:27:53.407Z,74.26
2023-04-16T12:30:23.428Z,74.03
2023-04-16T12:32:53.538Z,73.76
2023-04-16T12:35:33.934Z,74.07
2023-04-16T12:38:01.043Z,73.96
2023-04-16T12:40:27.748Z,73.79
2023-04-16T12:42:54.873Z,73.21
2023-04-16T12:45:21.949Z,73.13
2023-04-16T12:47:48.471Z,73.08
2023-04-16T12:50:14.950Z,72.59
2023-04-16T12:52:41.557Z,72.63
2023-04-16T12:55:08.353Z,72.57
2023-04-16T12:57:34.827Z,71.39
2023-04-16T13:00:01.360Z,71.39
2023-04-16T13:02:28.168Z,71.42
2023-04-16T13:04:54.886Z,71.36
2023-04-16T13:07:21.524Z,71.25
2023-04-16T13:09:47.968Z,71.27
2023-04-16T13:12:14.460Z,71.52
2023-04-16T13:14:43.271Z,71.61
2023-04-16T13:17:11.099Z,71.84
2023-04-16T13:19:37.515Z,72.01
2023-04-16T13:22:04.029Z,71.81
2023-04-16T13:24:30.538Z,71.73
2023-04-16T13:26:56.964Z,71.92
2023-04-16T13:29:23.364Z,72.04
2023-04-16T13:31:50.006Z,72.25
2023-04-16T13:34:16.484Z,72.08
2023-04-16T13:36:43.079Z,72.33
2023-04-16T13:39:12.238Z,72.14
2023-04-16T13:41:38.966Z,72.32
2023-04-16T13:44:05.912Z,72.06
2023-04-16T13:46:32.561Z,71.81
2023-04-16T13:48:59.121Z,71.76
2023-04-16T13:51:27.060Z,72.06
2023-04-16T13:53:54.709Z,71.64
2023-04-16T13:56:21.262Z,71.67
2023-04-16T13:58:47.709Z,71.63
2023-04-16T14:01:14.222Z,70.96
2023-04-16T14:03:42.058Z,71.06
2023-04-16T14:06:08.574Z,70.90
2023-04-16T14:08:35.095Z,71.12
2023-04-16T14:11:02.136Z,71.03
2023-04-16T14:13:28.565Z,71.17
2023-04-16T14:15:55.714Z,71.60
2023-04-16T14:18:22.144Z,71.52
2023-04-16T14:20:48.623Z,71.75
2023-04-16T14:23:15.079Z,71.75
2023-04-16T14:25:41.657Z,71.89
2023-04-16T14:28:09.235Z,71.81
2023-04-16T14:30:35.774Z,72.08
2023-04-16T14:33:04.350Z,71.92
2023-04-16T14:35:30.910Z,72.15
2023-04-16T14:37:58.301Z,71.98
2023-04-16T14:40:24.762Z,71.67
2023-04-16T14:42:51.237Z,71.85
2023-04-16T14:45:17.634Z,71.62
2023-04-16T14:47:47.732Z,71.99
2023-04-16T14:50:15.701Z,72.08
2023-04-16T14:52:42.267Z,72.25
2023-04-16T14:55:08.828Z,72.41
2023-04-16T14:57:35.402Z,72.42
2023-04-16T15:00:02.206Z,72.34
2023-04-16T15:02:28.968Z,72.37
2023-04-16T15:04:55.573Z,71.91
2023-04-16T15:07:22.158Z,72.13
2023-04-16T15:09:48.576Z,71.92
2023-04-16T15:12:16.187Z,71.92
2023-04-16T15:14:43.376Z,72.03
2023-04-16T15:17:10.043Z,71.91
2023-04-16T15:19:36.719Z,72.08
2023-04-16T15:22:03.155Z,71.83
2023-04-16T15:24:29.552Z,71.86
2023-04-16T15:26:56.344Z,72.17
2023-04-16T15:29:22.742Z,71.96
2023-04-16T15:31:49.234Z,71.92
2023-04-16T15:34:15.792Z,71.95
2023-04-16T15:36:42.255Z,71.27
2023-04-16T15:39:09.557Z,70.90
2023-04-16T15:41:46.980Z,70.87
2023-04-16T15:44:23.893Z,71.12
2023-04-16T15:46:50.395Z,70.94
2023-04-16T15:49:16.888Z,71.04
2023-04-16T15:51:43.308Z,71.34
2023-04-16T15:54:09.777Z,71.59
2023-04-16T15:56:36.211Z,71.66
2023-04-16T15:59:03.836Z,71.68
2023-04-16T16:01:31.109Z,71.78
2023-04-16T16:03:57.785Z,72.00
2023-04-16T16:06:24.610Z,72.01
2023-04-16T16:08:51.206Z,72.19
2023-04-16T16:11:17.625Z,72.31
2023-04-16T16:13:44.014Z,72.28
2023-04-16T16:16:10.640Z,72.18
2023-04-16T16:18:37.286Z,72.24
2023-04-16T16:21:03.887Z,72.29
2023-04-16T16:23:30.432Z,72.33
2023-04-16T16:25:56.930Z,72.51
2023-04-16T16:28:25.006Z,72.42
2023-04-16T16:30:53.773Z,72.50
2023-04-16T16:33:20.780Z,72.39
2023-04-16T16:35:47.262Z,72.50
2023-04-16T16:38:13.704Z,72.41
2023-04-16T16:40:40.188Z,72.79
2023-04-16T16:43:06.635Z,72.58
2023-04-16T16:45:33.103Z,72.98
2023-04-16T16:47:59.580Z,72.76
2023-04-16T16:50:26.127Z,73.16
2023-04-16T16:52:52.663Z,72.80
2023-04-16T16:55:20.199Z,72.17
2023-04-16T16:57:46.616Z,71.90
2023-04-16T17:00:14.258Z,72.34
2023-04-16T17:02:41.275Z,72.49
2023-04-16T17:05:08.288Z,73.29
2023-04-16T17:07:34.751Z,73.39
2023-04-16T17:10:03.735Z,73.43
2023-04-16T17:12:31.906Z,73.43
2023-04-16T17:14:58.418Z,73.65
2023-04-16T17:17:26.556Z,73.55
2023-04-16T17:19:53.455Z,73.50
2023-04-16T17:22:19.890Z,73.69
2023-04-16T17:24:46.688Z,73.89
2023-04-16T17:27:13.135Z,74.15
2023-04-16T17:29:39.581Z,74.06
2023-04-16T17:32:06.090Z,74.12
2023-04-16T17:34:32.554Z,74.46
2023-04-16T17:36:58.942Z,74.70
2023-04-16T17:39:25.398Z,74.80
2023-04-16T17:41:54.763Z,75.00
2023-04-16T17:44:22.973Z,75.14
2023-04-16T17:46:49.389Z,75.40
2023-04-16T17:49:16.006Z,75.33
2023-04-16T17:51:44.416Z,76.14
2023-04-16T17:54:11.108Z,75.93
2023-04-16T17:56:37.759Z,75.56
2023-04-16T17:59:04.949Z,75.73
2023-04-16T18:01:31.587Z,75.89
2023-04-16T18:03:58.331Z,75.73
2023-04-16T18:06:25.033Z,75.69
2023-04-16T18:08:51.509Z,75.94
2023-04-16T18:11:17.923Z,75.58
2023-04-16T18:13:44.482Z,75.64
2023-04-16T18:16:16.503Z,75.55
2023-04-16T18:18:43.837Z,75.43
2023-04-16T18:21:10.649Z,75.74
2023-04-16T18:23:37.387Z,75.73
2023-04-16T18:26:04.122Z,76.02
2023-04-16T18:28:30.588Z,76.17
2023-04-16T18:30:59.010Z,75.87
2023-04-16T18:33:52.443Z,75.74
2023-04-16T18:36:14.555Z,76.19
2023-04-16T18:38:53.017Z,76.00
2023-04-16T18:41:26.289Z,76.24
2023-04-16T18:43:52.774Z,76.43
2023-04-16T18:46:19.213Z,76.27
2023-04-16T18:48:45.806Z,76.42
2023-04-16T18:51:14.226Z,76.52
2023-04-16T18:53:44.267Z,76.46
2023-04-16T18:56:11.566Z,76.20
2023-04-16T18:58:38.127Z,76.04
2023-04-16T19:01:05.288Z,76.31
2023-04-16T19:03:32.205Z,76.40
2023-04-16T19:05:58.823Z,76.65
2023-04-16T19:08:26.257Z,76.58
2023-04-16T19:10:52.829Z,76.42
2023-04-16T19:13:19.250Z,76.54
2023-04-16T19:15:46.174Z,76.94
2023-04-16T19:18:12.670Z,77.10
2023-04-16T19:20:39.503Z,77.35
2023-04-16T19:23:08.867Z,77.37
2023-04-16T19:25:36.509Z,77.52
2023-04-16T19:28:03.896Z,77.49
2023-04-16T19:30:30.998Z,77.72
2023-04-16T19:32:57.612Z,77.63
2023-04-16T19:35:24.184Z,77.28
2023-04-16T19:37:50.943Z,77.59
2023-04-16T19:40:17.461Z,77.60
2023-04-16T19:42:45.362Z,77.49
2023-04-16T19:45:11.855Z,77.77
2023-04-16T19:47:38.422Z,77.58
2023-04-16T19:50:05.349Z,77.56
2023-04-16T19:52:37.299Z,77.49
2023-04-16T19:55:04.289Z,77.47
2023-04-16T19:57:30.730Z,77.58
2023-04-16T19:59:57.274Z,77.71
2023-04-16T20:02:23.788Z,77.54
2023-04-16T20:04:50.727Z,77.77
2023-04-16T20:07:17.526Z,77.56
2023-04-16T20:09:43.960Z,77.63
2023-04-16T20:12:10.456Z,77.59
2023-04-16T20:14:36.862Z,77.49
2023-04-16T20:17:03.589Z,77.43
2023-04-16T20:19:33.590Z,77.61
2023-04-16T20:21:59.987Z,77.43
2023-04-16T20:24:26.589Z,77.17
2023-04-16T20:26:52.997Z,77.36
2023-04-16T20:29:19.408Z,77.05
2023-04-16T20:31:46.175Z,77.18
2023-04-16T20:34:12.834Z,77.41
2023-04-16T20:36:39.229Z,77.36
2023-04-16T20:39:07.889Z,77.37
2023-04-16T20:41:34.391Z,77.38
2023-04-16T20:44:05.343Z,77.37
2023-04-16T20:46:34.236Z,77.56
2023-04-16T20:49:04.510Z,77.52
2023-04-16T20:51:31.541Z,77.79
2023-04-16T20:53:57.991Z,78.01
2023-04-16T20:56:24.426Z,77.77
2023-04-16T20:58:53.085Z,77.92
2023-04-16T21:01:20.565Z,77.85
2023-04-16T21:03:47.124Z,78.11
2023-04-16T21:06:17.914Z,78.33
2023-04-16T21:08:44.512Z,78.38
2023-04-16T21:11:10.945Z,78.60
2023-04-16T21:13:37.343Z,78.83
2023-04-16T21:16:04.946Z,78.75
2023-04-16T21:18:31.440Z,78.88
2023-04-16T21:20:58.960Z,78.93
2023-04-16T21:23:25.459Z,78.70
2023-04-16T21:25:51.897Z,78.56
2023-04-16T21:28:18.314Z,78.95
2023-04-16T21:30:44.787Z,78.58
2023-04-16T21:33:12.812Z,78.59
2023-04-16T21:35:39.272Z,78.43
2023-04-16T21:38:05.683Z,78.26
2023-04-16T21:40:32.142Z,78.24
2023-04-16T21:42:58.586Z,78.68
2023-04-16T21:45:24.974Z,78.42
2023-04-16T21:47:51.457Z,78.74
2023-04-16T21:50:18.063Z,79.03
2023-04-16T21:52:46.764Z,78.91
2023-04-16T21:55:14.387Z,78.72
2023-04-16T21:57:40.870Z,78.75
2023-04-16T22:00:12.026Z,78.75
2023-04-16T22:02:38.515Z,78.97
2023-04-16T22:05:05.452Z,78.81
2023-04-16T22:07:31.882Z,79.05
2023-04-16T22:09:58.279Z,79.05
2023-04-16T22:12:24.751Z,78.86
2023-04-16T22:17:22.255Z,78.29
2023-04-16T22:19:49.314Z,78.40
2023-04-16T22:22:15.796Z,78.41
2023-04-16T22:24:42.374Z,79.11
2023-04-16T22:27:08.805Z,79.05
2023-04-16T22:29:35.350Z,79.25
2023-04-16T22:32:02.006Z,79.42
2023-04-16T22:34:28.452Z,79.00
2023-04-16T22:36:54.889Z,79.33
2023-04-16T22:39:21.489Z,79.37
2023-04-16T22:41:48.022Z,79.31
2023-04-16T22:44:14.834Z,79.51
2023-04-16T22:46:41.410Z,79.35
2023-04-16T22:49:07.807Z,79.47
2023-04-16T22:51:34.206Z,79.93
2023-04-16T22:54:00.830Z,79.53
2023-04-16T22:56:28.924Z,79.59
2023-04-16T22:58:55.520Z,80.06
2023-04-16T23:01:22.139Z,79.98
2023-04-16T23:03:48.846Z,79.81
2023-04-16T23:06:15.711Z,79.59
2023-04-16T23:08:42.120Z,79.65
2023-04-16T23:11:08.542Z,79.92
2023-04-16T23:13:34.939Z,79.67
2023-04-16T23:16:01.361Z,79.90
2023-04-16T23:18:27.852Z,79.72
2023-04-16T23:20:54.240Z,79.90
2023-04-16T23:23:20.800Z,80.08
2023-04-16T23:25:47.246Z,80.37
2023-04-16T23:28:13.746Z,80.23
2023-04-16T23:30:40.280Z,80.63
2023-04-16T23:33:06.847Z,80.52
2023-04-16T23:35:33.400Z,80.25
2023-04-16T23:37:59.787Z,80.48
2023-04-16T23:40:26.451Z,80.53
2023-04-16T23:42:52.844Z,80.87
2023-04-16T23:45:19.254Z,80.81
2023-04-16T23:47:45.811Z,80.79
2023-04-16T23:50:12.570Z,80.91
2023-04-16T23:52:39.029Z,80.59
2023-04-16T23:55:05.752Z,80.93
2023-04-16T23:57:32.188Z,81.07
2023-04-16T23:59:58.585Z,81.05
